Terminal Aerodrome Forecast
Issued by NWS Grand Rapids, MI

Home | Current Version | Previous Version | Text Only | Print | Product List | Glossary On
Versions: 1 2 3 4 5 6 7 8 9 10 11 12 13 14 15 16 17 18 19 20 21 22 23 24 25 26 27 28 29 30 31
000
FTUS43 KGRR 140114 AAA
TAFGRR
TAF AMD
KGRR 140114Z 1401/1424 04016KT 1 1/2SM -SN OVC021
      TEMPO 1401/1403 3/4SM -SN BLSN OVC015
     FM140300 01012KT 3SM -SN OVC035
     FM140400 02011KT P6SM BKN050
     FM142100 25007KT P6SM OVC025=

USA.gov is the U.S. government's official web portal to all federal, state and local government web resources and services.